sensor_id;sensor_type;location;lat;lon;timestamp;P1;durP1;ratioP1;P2;durP2;ratioP2
63959;SDS011;50136;51.374;0.096;2023-04-03T00:02:02;7.30;;;2.53;;
63959;SDS011;50136;51.374;0.096;2023-04-03T00:12:04;9.50;;;2.83;;
63959;SDS011;50136;51.374;0.096;2023-04-03T00:22:07;12.55;;;2.53;;
63959;SDS011;50136;51.374;0.096;2023-04-03T00:32:09;6.75;;;2.00;;
63959;SDS011;50136;51.374;0.096;2023-04-03T00:42:13;8.57;;;2.00;;
63959;SDS011;50136;51.374;0.096;2023-04-03T00:52:16;12.60;;;3.20;;
63959;SDS011;50136;51.374;0.096;2023-04-03T01:02:24;4.65;;;2.40;;
63959;SDS011;50136;51.374;0.096;2023-04-03T01:12:27;7.45;;;1.40;;
63959;SDS011;50136;51.374;0.096;2023-04-03T01:22:32;12.40;;;2.08;;
63959;SDS011;50136;51.374;0.096;2023-04-03T01:32:47;7.63;;;1.85;;
63959;SDS011;50136;51.374;0.096;2023-04-03T01:42:49;12.80;;;3.70;;
63959;SDS011;50136;51.374;0.096;2023-04-03T01:52:53;7.68;;;2.55;;
63959;SDS011;50136;51.374;0.096;2023-04-03T02:02:55;9.68;;;3.20;;
63959;SDS011;50136;51.374;0.096;2023-04-03T02:12:58;7.50;;;2.10;;
63959;SDS011;50136;51.374;0.096;2023-04-03T02:23:00;10.52;;;3.05;;
63959;SDS011;50136;51.374;0.096;2023-04-03T02:33:04;7.30;;;1.60;;
63959;SDS011;50136;51.374;0.096;2023-04-03T02:43:06;12.18;;;2.10;;
63959;SDS011;50136;51.374;0.096;2023-04-03T02:53:09;10.43;;;3.15;;
63959;SDS011;50136;51.374;0.096;2023-04-03T03:03:11;6.00;;;1.90;;
63959;SDS011;50136;51.374;0.096;2023-04-03T03:13:15;5.57;;;2.13;;
63959;SDS011;50136;51.374;0.096;2023-04-03T03:23:17;11.05;;;2.35;;
63959;SDS011;50136;51.374;0.096;2023-04-03T03:33:20;6.35;;;1.60;;
63959;SDS011;50136;51.374;0.096;2023-04-03T03:43:22;6.20;;;1.88;;
63959;SDS011;50136;51.374;0.096;2023-04-03T03:53:25;5.63;;;1.63;;
63959;SDS011;50136;51.374;0.096;2023-04-03T04:03:27;4.82;;;1.83;;
63959;SDS011;50136;51.374;0.096;2023-04-03T04:13:31;11.30;;;2.55;;
63959;SDS011;50136;51.374;0.096;2023-04-03T04:23:33;6.03;;;2.10;;
63959;SDS011;50136;51.374;0.096;2023-04-03T04:33:36;3.72;;;2.03;;
63959;SDS011;50136;51.374;0.096;2023-04-03T04:43:38;5.50;;;2.00;;
63959;SDS011;50136;51.374;0.096;2023-04-03T04:53:42;8.45;;;1.65;;
63959;SDS011;50136;51.374;0.096;2023-04-03T05:03:44;7.68;;;2.05;;
63959;SDS011;50136;51.374;0.096;2023-04-03T05:13:47;7.90;;;2.30;;
63959;SDS011;50136;51.374;0.096;2023-04-03T05:23:50;9.18;;;2.42;;
63959;SDS011;50136;51.374;0.096;2023-04-03T05:33:54;13.77;;;4.85;;
63959;SDS011;50136;51.374;0.096;2023-04-03T05:43:56;7.22;;;2.65;;
63959;SDS011;50136;51.374;0.096;2023-04-03T05:54:00;5.55;;;2.10;;
63959;SDS011;50136;51.374;0.096;2023-04-03T06:04:08;8.60;;;2.97;;
63959;SDS011;50136;51.374;0.096;2023-04-03T06:14:12;10.13;;;2.40;;
63959;SDS011;50136;51.374;0.096;2023-04-03T06:24:15;14.10;;;3.75;;
63959;SDS011;50136;51.374;0.096;2023-04-03T06:34:19;15.18;;;3.38;;
63959;SDS011;50136;51.374;0.096;2023-04-03T06:44:21;8.80;;;3.47;;
63959;SDS011;50136;51.374;0.096;2023-04-03T06:54:24;13.52;;;2.97;;
63959;SDS011;50136;51.374;0.096;2023-04-03T07:04:27;12.18;;;2.70;;
63959;SDS011;50136;51.374;0.096;2023-04-03T07:14:30;5.60;;;2.95;;
63959;SDS011;50136;51.374;0.096;2023-04-03T07:24:32;11.13;;;2.97;;
63959;SDS011;50136;51.374;0.096;2023-04-03T07:34:36;9.45;;;3.35;;
63959;SDS011;50136;51.374;0.096;2023-04-03T07:44:38;11.98;;;4.00;;
63959;SDS011;50136;51.374;0.096;2023-04-03T07:54:42;11.05;;;3.50;;
63959;SDS011;50136;51.374;0.096;2023-04-03T08:04:44;20.58;;;3.55;;
63959;SDS011;50136;51.374;0.096;2023-04-03T08:14:49;14.40;;;4.30;;
63959;SDS011;50136;51.374;0.096;2023-04-03T08:24:52;12.88;;;3.78;;
63959;SDS011;50136;51.374;0.096;2023-04-03T08:35:01;11.55;;;4.25;;
63959;SDS011;50136;51.374;0.096;2023-04-03T08:45:05;10.73;;;4.78;;
63959;SDS011;50136;51.374;0.096;2023-04-03T08:55:18;11.27;;;5.43;;
63959;SDS011;50136;51.374;0.096;2023-04-03T09:05:29;10.07;;;4.75;;
63959;SDS011;50136;51.374;0.096;2023-04-03T09:15:42;12.45;;;4.82;;
63959;SDS011;50136;51.374;0.096;2023-04-03T09:25:45;13.32;;;5.75;;
63959;SDS011;50136;51.374;0.096;2023-04-03T09:35:50;10.90;;;5.78;;
63959;SDS011;50136;51.374;0.096;2023-04-03T09:45:53;14.25;;;5.50;;
63959;SDS011;50136;51.374;0.096;2023-04-03T09:55:57;11.88;;;5.53;;
63959;SDS011;50136;51.374;0.096;2023-04-03T10:06:01;12.68;;;4.75;;
63959;SDS011;50136;51.374;0.096;2023-04-03T10:16:06;13.05;;;4.85;;
63959;SDS011;50136;51.374;0.096;2023-04-03T10:26:15;14.35;;;5.88;;
63959;SDS011;50136;51.374;0.096;2023-04-03T10:36:33;7.75;;;3.88;;
63959;SDS011;50136;51.374;0.096;2023-04-03T10:46:40;6.53;;;3.90;;
63959;SDS011;50136;51.374;0.096;2023-04-03T10:56:47;13.60;;;5.40;;
63959;SDS011;50136;51.374;0.096;2023-04-03T11:07:12;8.00;;;3.63;;
63959;SDS011;50136;51.374;0.096;2023-04-03T11:17:25;5.80;;;3.63;;
63959;SDS011;50136;51.374;0.096;2023-04-03T11:27:48;9.07;;;3.30;;
63959;SDS011;50136;51.374;0.096;2023-04-03T11:37:56;6.45;;;3.72;;
63959;SDS011;50136;51.374;0.096;2023-04-03T11:48:02;5.80;;;3.25;;
63959;SDS011;50136;51.374;0.096;2023-04-03T11:58:26;8.50;;;4.15;;
63959;SDS011;50136;51.374;0.096;2023-04-03T12:08:42;6.78;;;3.08;;
63959;SDS011;50136;51.374;0.096;2023-04-03T12:18:55;6.00;;;3.63;;
63959;SDS011;50136;51.374;0.096;2023-04-03T12:29:01;8.75;;;4.78;;
63959;SDS011;50136;51.374;0.096;2023-04-03T12:39:26;9.45;;;3.88;;
63959;SDS011;50136;51.374;0.096;2023-04-03T12:49:52;4.60;;;3.25;;
63959;SDS011;50136;51.374;0.096;2023-04-03T12:59:57;6.72;;;3.22;;
63959;SDS011;50136;51.374;0.096;2023-04-03T13:10:00;6.47;;;3.33;;
63959;SDS011;50136;51.374;0.096;2023-04-03T13:20:14;6.40;;;2.50;;
63959;SDS011;50136;51.374;0.096;2023-04-03T13:30:20;5.25;;;2.80;;
63959;SDS011;50136;51.374;0.096;2023-04-03T13:40:27;7.63;;;2.95;;
63959;SDS011;50136;51.374;0.096;2023-04-03T13:50:55;5.93;;;2.50;;
63959;SDS011;50136;51.374;0.096;2023-04-03T14:01:06;5.80;;;2.85;;
63959;SDS011;50136;51.374;0.096;2023-04-03T14:11:13;6.70;;;2.85;;
63959;SDS011;50136;51.374;0.096;2023-04-03T14:21:20;11.18;;;3.70;;
63959;SDS011;50136;51.374;0.096;2023-04-03T14:31:23;10.40;;;4.47;;
63959;SDS011;50136;51.374;0.096;2023-04-03T14:41:27;7.35;;;3.90;;
63959;SDS011;50136;51.374;0.096;2023-04-03T14:51:30;9.80;;;4.70;;
63959;SDS011;50136;51.374;0.096;2023-04-03T15:01:33;8.43;;;4.40;;
63959;SDS011;50136;51.374;0.096;2023-04-03T15:11:35;9.48;;;5.68;;
63959;SDS011;50136;51.374;0.096;2023-04-03T15:21:39;13.18;;;5.30;;
63959;SDS011;50136;51.374;0.096;2023-04-03T15:31:41;6.05;;;4.45;;
63959;SDS011;50136;51.374;0.096;2023-04-03T15:41:44;6.07;;;3.47;;
63959;SDS011;50136;51.374;0.096;2023-04-03T15:51:47;9.63;;;4.18;;
63959;SDS011;50136;51.374;0.096;2023-04-03T16:01:50;6.18;;;3.88;;
63959;SDS011;50136;51.374;0.096;2023-04-03T16:11:54;7.78;;;3.17;;
63959;SDS011;50136;51.374;0.096;2023-04-03T16:21:57;7.70;;;4.00;;
63959;SDS011;50136;51.374;0.096;2023-04-03T16:31:59;9.95;;;4.47;;
63959;SDS011;50136;51.374;0.096;2023-04-03T16:42:04;6.05;;;3.08;;
63959;SDS011;50136;51.374;0.096;2023-04-03T16:52:06;8.32;;;3.83;;
63959;SDS011;50136;51.374;0.096;2023-04-03T17:02:09;8.02;;;3.35;;
63959;SDS011;50136;51.374;0.096;2023-04-03T17:12:11;7.43;;;2.55;;
63959;SDS011;50136;51.374;0.096;2023-04-03T17:22:15;6.18;;;2.95;;
63959;SDS011;50136;51.374;0.096;2023-04-03T17:32:17;9.45;;;3.08;;
63959;SDS011;50136;51.374;0.096;2023-04-03T17:42:21;8.85;;;2.75;;
63959;SDS011;50136;51.374;0.096;2023-04-03T17:52:23;11.32;;;3.10;;
63959;SDS011;50136;51.374;0.096;2023-04-03T18:13:45;15.50;;;3.88;;
63959;SDS011;50136;51.374;0.096;2023-04-03T18:23:48;9.07;;;3.40;;
63959;SDS011;50136;51.374;0.096;2023-04-03T18:33:53;13.63;;;5.40;;
63959;SDS011;50136;51.374;0.096;2023-04-03T18:43:55;18.20;;;4.10;;
63959;SDS011;50136;51.374;0.096;2023-04-03T18:54:01;8.73;;;3.50;;
63959;SDS011;50136;51.374;0.096;2023-04-03T19:04:05;6.90;;;2.95;;
63959;SDS011;50136;51.374;0.096;2023-04-03T19:14:09;13.48;;;3.78;;
63959;SDS011;50136;51.374;0.096;2023-04-03T19:24:17;15.82;;;3.33;;
63959;SDS011;50136;51.374;0.096;2023-04-03T19:45:01;15.40;;;3.67;;
63959;SDS011;50136;51.374;0.096;2023-04-03T19:55:03;13.02;;;3.60;;
63959;SDS011;50136;51.374;0.096;2023-04-03T20:05:08;13.15;;;5.03;;
63959;SDS011;50136;51.374;0.096;2023-04-03T20:15:10;10.25;;;3.97;;
63959;SDS011;50136;51.374;0.096;2023-04-03T20:25:14;21.83;;;5.32;;
63959;SDS011;50136;51.374;0.096;2023-04-03T20:35:36;8.32;;;3.67;;
63959;SDS011;50136;51.374;0.096;2023-04-03T20:45:39;12.18;;;4.55;;
63959;SDS011;50136;51.374;0.096;2023-04-03T20:55:41;11.30;;;4.15;;
63959;SDS011;50136;51.374;0.096;2023-04-03T21:05:45;8.95;;;3.63;;
63959;SDS011;50136;51.374;0.096;2023-04-03T21:25:51;12.20;;;3.55;;
63959;SDS011;50136;51.374;0.096;2023-04-03T21:35:53;19.85;;;4.32;;
63959;SDS011;50136;51.374;0.096;2023-04-03T21:45:57;9.25;;;3.40;;
63959;SDS011;50136;51.374;0.096;2023-04-03T21:55:59;8.93;;;3.80;;
63959;SDS011;50136;51.374;0.096;2023-04-03T22:06:03;14.25;;;4.00;;
63959;SDS011;50136;51.374;0.096;2023-04-03T22:16:05;18.10;;;7.10;;
63959;SDS011;50136;51.374;0.096;2023-04-03T22:26:10;13.65;;;4.80;;
63959;SDS011;50136;51.374;0.096;2023-04-03T22:36:13;11.02;;;4.03;;
63959;SDS011;50136;51.374;0.096;2023-04-03T22:46:16;15.18;;;3.90;;
63959;SDS011;50136;51.374;0.096;2023-04-03T22:56:18;11.88;;;3.33;;
63959;SDS011;50136;51.374;0.096;2023-04-03T23:06:22;13.30;;;3.90;;
63959;SDS011;50136;51.374;0.096;2023-04-03T23:16:24;7.13;;;4.18;;
63959;SDS011;50136;51.374;0.096;2023-04-03T23:26:27;7.38;;;2.97;;
63959;SDS011;50136;51.374;0.096;2023-04-03T23:36:29;10.07;;;4.40;;
63959;SDS011;50136;51.374;0.096;2023-04-03T23:46:33;9.50;;;3.13;;
63959;SDS011;50136;51.374;0.096;2023-04-03T23:56:35;10.25;;;2.83;;
